createdAt,value
2023-05-19T00:00:03.780Z,102533.59
2023-05-19T00:00:17.882Z,102532.72
2023-05-19T00:00:51.614Z,102533.59
2023-05-19T00:01:10.922Z,102530.91
2023-05-19T00:01:25.127Z,102533.59
2023-05-19T00:01:38.436Z,102536.25
2023-05-19T00:01:52.525Z,102537.97
2023-05-19T00:02:05.891Z,102531.75
2023-05-19T00:02:20.976Z,102533.59
2023-05-19T00:02:34.519Z,102536.25
2023-05-19T00:02:47.817Z,102533.59
2023-05-19T00:03:01.298Z,102531.84
2023-05-19T00:03:15.411Z,102528.22
2023-05-19T00:03:28.640Z,102535.41
2023-05-19T00:03:52.505Z,102527.38
2023-05-19T00:04:05.750Z,102528.31
2023-05-19T00:04:19.315Z,102537.19
2023-05-19T00:04:33.576Z,102538.09
2023-05-19T00:04:47.977Z,102529.16
2023-05-19T00:05:03.780Z,102537.19
2023-05-19T00:05:18.569Z,102533.75
2023-05-19T00:05:31.544Z,102530.13
2023-05-19T00:05:46.150Z,102527.44
2023-05-19T00:06:01.949Z,102527.44
2023-05-19T00:06:15.133Z,102531.84
2023-05-19T00:06:31.666Z,102524.75
2023-05-19T00:06:50.854Z,102527.53
2023-05-19T00:07:03.614Z,102530.28
2023-05-19T00:07:19.220Z,102541.00
2023-05-19T00:07:32.580Z,102532.97
2023-05-19T00:07:47.312Z,102529.41
2023-05-19T00:08:01.555Z,102529.41
2023-05-19T00:08:17.292Z,102539.28
2023-05-19T00:08:31.791Z,102531.25
2023-05-19T00:08:44.831Z,102531.31
2023-05-19T00:08:58.986Z,102527.78
2023-05-19T00:09:12.329Z,102533.16
2023-05-19T00:09:25.509Z,102530.47
2023-05-19T00:09:39.790Z,102538.59
2023-05-19T00:09:52.857Z,102538.59
2023-05-19T00:10:06.622Z,102532.38
2023-05-19T00:10:19.805Z,102529.69
2023-05-19T00:10:33.281Z,102537.72
2023-05-19T00:10:46.682Z,102524.41
2023-05-19T00:11:00.137Z,102537.81
2023-05-19T00:11:14.142Z,102537.91
2023-05-19T00:11:28.250Z,102536.09
2023-05-19T00:11:41.409Z,102530.81
2023-05-19T00:11:54.489Z,102533.47
2023-05-19T00:12:08.043Z,102536.25
2023-05-19T00:12:21.256Z,102534.53
2023-05-19T00:12:35.058Z,102532.69
2023-05-19T00:12:48.399Z,102535.38
2023-05-19T00:13:01.569Z,102536.34
2023-05-19T00:13:14.514Z,102531.00
2023-05-19T00:13:27.915Z,102535.50
2023-05-19T00:13:40.980Z,102530.13
2023-05-19T00:13:54.234Z,102532.03
2023-05-19T00:14:10.529Z,102530.22
2023-05-19T00:14:23.508Z,102534.59
2023-05-19T00:14:36.531Z,102533.81
2023-05-19T00:14:49.439Z,102530.22
2023-05-19T00:15:02.595Z,102531.91
2023-05-19T00:15:16.028Z,102526.66
2023-05-19T00:15:29.082Z,102531.06
2023-05-19T00:15:43.326Z,102537.28
2023-05-19T00:15:56.456Z,102534.59
2023-05-19T00:16:10.703Z,102530.22
2023-05-19T00:16:25.094Z,102534.59
2023-05-19T00:16:38.920Z,102526.66
2023-05-19T00:16:52.026Z,102532.88
2023-05-19T00:17:05.245Z,102528.38
2023-05-19T00:17:20.232Z,102527.53
2023-05-19T00:17:34.386Z,102526.66
2023-05-19T00:17:47.000Z,102533.75
2023-05-19T00:17:59.630Z,102532.88
2023-05-19T00:18:14.002Z,102527.53
2023-05-19T00:18:26.749Z,102532.03
2023-05-19T00:18:40.647Z,102524.00
2023-05-19T00:18:54.213Z,102521.31
2023-05-19T00:19:10.267Z,102530.22
2023-05-19T00:19:24.554Z,102523.88
2023-05-19T00:19:38.092Z,102522.09
2023-05-19T00:19:50.659Z,102525.63
2023-05-19T00:20:07.476Z,102526.50
2023-05-19T00:20:20.041Z,102526.50
2023-05-19T00:20:33.843Z,102528.31
2023-05-19T00:20:46.658Z,102523.81
2023-05-19T00:20:59.280Z,102523.88
2023-05-19T00:21:12.022Z,102519.41
2023-05-19T00:21:24.604Z,102526.50
2023-05-19T00:21:38.286Z,102524.78
2023-05-19T00:21:50.907Z,102525.63
2023-05-19T00:22:03.877Z,102526.50
2023-05-19T00:22:17.502Z,102528.31
2023-05-19T00:22:30.030Z,102523.81
2023-05-19T00:22:44.139Z,102525.63
2023-05-19T00:22:56.742Z,102523.72
2023-05-19T00:23:11.337Z,102527.34
2023-05-19T00:23:23.897Z,102526.50
2023-05-19T00:23:36.698Z,102525.97
2023-05-19T00:23:49.358Z,102526.31
2023-05-19T00:24:02.893Z,102525.44
2023-05-19T00:24:15.509Z,102527.25
2023-05-19T00:24:28.380Z,102526.31
2023-05-19T00:24:40.879Z,102528.91
2023-05-19T00:24:53.511Z,102521.84
2023-05-19T00:25:07.127Z,102524.50
2023-05-19T00:25:19.747Z,102529.88
2023-05-19T00:25:33.283Z,102525.38
2023-05-19T00:25:45.855Z,102529.88
2023-05-19T00:25:58.387Z,102527.97
2023-05-19T00:26:11.328Z,102527.97
2023-05-19T00:26:24.497Z,102525.28
2023-05-19T00:26:37.214Z,102526.16
2023-05-19T00:26:50.193Z,102521.66
2023-05-19T00:27:03.768Z,102521.66
2023-05-19T00:27:16.573Z,102525.19
2023-05-19T00:27:29.105Z,102527.00
2023-05-19T00:27:41.642Z,102516.28
2023-05-19T00:27:54.173Z,102522.50
2023-05-19T00:28:06.722Z,102524.31
2023-05-19T00:28:19.245Z,102530.53
2023-05-19T00:28:32.754Z,102523.38
2023-05-19T00:28:45.417Z,102530.47
2023-05-19T00:28:57.999Z,102523.38
2023-05-19T00:29:10.565Z,102525.09
2023-05-19T00:29:23.086Z,102521.56
2023-05-19T00:29:35.632Z,102523.28
2023-05-19T00:29:48.230Z,102517.06
2023-05-19T00:30:01.874Z,102519.75
2023-05-19T00:30:15.141Z,102519.75
2023-05-19T00:30:27.720Z,102525.09
2023-05-19T00:30:40.286Z,102522.44
2023-05-19T00:30:52.800Z,102521.47
2023-05-19T00:31:08.128Z,102522.44
2023-05-19T00:31:21.759Z,102517.06
2023-05-19T00:31:34.561Z,102526.81
2023-05-19T00:31:47.353Z,102521.47
2023-05-19T00:31:59.984Z,102521.56
2023-05-19T00:32:12.668Z,102526.06
2023-05-19T00:32:25.211Z,102518.88
2023-05-19T00:32:37.870Z,102514.47
2023-05-19T00:32:50.684Z,102526.06
2023-05-19T00:33:04.342Z,102519.81
2023-05-19T00:33:16.941Z,102520.78
2023-05-19T00:33:29.444Z,102518.09
2023-05-19T00:33:42.018Z,102517.25
2023-05-19T00:33:54.589Z,102519.94
2023-05-19T00:34:07.124Z,102520.88
2023-05-19T00:34:20.672Z,102521.72
2023-05-19T00:34:33.482Z,102517.25
2023-05-19T00:34:48.429Z,102519.03
2023-05-19T00:35:01.032Z,102520.88
2023-05-19T00:35:15.751Z,102522.69
2023-05-19T00:35:28.449Z,102519.03
2023-05-19T00:35:40.968Z,102520.00
2023-05-19T00:35:53.536Z,102512.81
2023-05-19T00:36:07.587Z,102523.53
2023-05-19T00:36:20.170Z,102520.88
2023-05-19T00:36:32.773Z,102517.31
2023-05-19T00:36:45.514Z,102521.72
2023-05-19T00:36:58.066Z,102518.19
2023-05-19T00:37:10.686Z,102518.19
2023-05-19T00:37:23.440Z,102517.31
2023-05-19T00:37:36.049Z,102519.03
2023-05-19T00:37:49.856Z,102516.47
2023-05-19T00:38:02.424Z,102520.88
2023-05-19T00:38:14.987Z,102511.97
2023-05-19T00:38:27.961Z,102515.50
2023-05-19T00:38:40.537Z,102515.50
2023-05-19T00:38:53.117Z,102516.47
2023-05-19T00:39:05.656Z,102521.84
2023-05-19T00:39:19.190Z,102520.94
2023-05-19T00:39:31.730Z,102516.47
2023-05-19T00:39:44.352Z,102514.72
2023-05-19T00:39:57.328Z,102521.84
2023-05-19T00:40:10.781Z,102520.09
2023-05-19T00:40:24.639Z,102516.47
2023-05-19T00:40:37.165Z,102523.53
2023-05-19T00:40:50.774Z,102514.72
2023-05-19T00:41:04.948Z,102521.84
2023-05-19T00:41:17.694Z,102515.50
2023-05-19T00:41:30.393Z,102514.72
2023-05-19T00:41:42.941Z,102516.47
2023-05-19T00:41:55.524Z,102517.41
2023-05-19T00:42:09.642Z,102520.09
2023-05-19T00:42:22.226Z,102520.94
2023-05-19T00:42:34.866Z,102516.47
2023-05-19T00:42:47.453Z,102515.59
2023-05-19T00:43:00.032Z,102511.13
2023-05-19T00:43:12.993Z,102517.31
2023-05-19T00:43:26.159Z,102515.59
2023-05-19T00:43:39.709Z,102516.47
2023-05-19T00:43:52.331Z,102515.50
2023-05-19T00:44:06.993Z,102514.66
2023-05-19T00:44:19.526Z,102512.81
2023-05-19T00:44:32.073Z,102518.19
2023-05-19T00:44:44.594Z,102507.47
2023-05-19T00:44:58.178Z,102510.16
2023-05-19T00:45:11.255Z,102512.81
2023-05-19T00:45:25.514Z,102513.69
2023-05-19T00:45:38.123Z,102509.28
2023-05-19T00:45:51.819Z,102511.97
2023-05-19T00:46:04.469Z,102512.81
2023-05-19T00:46:20.532Z,102510.16
2023-05-19T00:46:33.117Z,102510.16
2023-05-19T00:46:46.796Z,102509.28
2023-05-19T00:46:59.572Z,102506.59
2023-05-19T00:47:12.238Z,102511.97
2023-05-19T00:47:24.813Z,102512.81
2023-05-19T00:47:37.509Z,102512.81
2023-05-19T00:47:50.105Z,102511.97
2023-05-19T00:48:02.663Z,102508.44
2023-05-19T00:48:16.285Z,102506.59
2023-05-19T00:48:28.980Z,102511.13
2023-05-19T00:48:44.626Z,102504.00
2023-05-19T00:48:57.309Z,102511.97
2023-05-19T00:49:09.836Z,102506.69
2023-05-19T00:49:23.659Z,102513.88
2023-05-19T00:49:36.196Z,102509.38
2023-05-19T00:49:48.735Z,102511.13
2023-05-19T00:50:01.301Z,102509.38
2023-05-19T00:50:15.518Z,102505.84
2023-05-19T00:50:28.622Z,102513.00
2023-05-19T00:50:41.527Z,102511.25
2023-05-19T00:50:56.337Z,102513.00
2023-05-19T00:51:10.072Z,102513.00
2023-05-19T00:51:24.120Z,102515.69
2023-05-19T00:51:37.219Z,102513.00
2023-05-19T00:51:50.070Z,102513.94
2023-05-19T00:52:03.111Z,102505.91
2023-05-19T00:52:15.779Z,102516.63
2023-05-19T00:52:29.656Z,102513.09
2023-05-19T00:52:42.177Z,102506.88
2023-05-19T00:52:55.757Z,102514.91
2023-05-19T00:53:08.399Z,102512.22
2023-05-19T00:53:21.717Z,102514.91
2023-05-19T00:53:34.827Z,102509.56
2023-05-19T00:53:50.971Z,102513.16
2023-05-19T00:54:04.844Z,102509.69
2023-05-19T00:54:17.633Z,102507.03
2023-05-19T00:54:30.620Z,102516.03
2023-05-19T00:54:44.385Z,102515.25
2023-05-19T00:54:56.941Z,102509.88
2023-05-19T00:55:10.584Z,102508.16
2023-05-19T00:55:26.708Z,102513.50
2023-05-19T00:55:40.573Z,102511.72
2023-05-19T00:55:54.135Z,102509.88
2023-05-19T00:56:07.008Z,102509.81
2023-05-19T00:56:21.077Z,102516.09
2023-05-19T00:56:33.727Z,102510.66
2023-05-19T00:56:46.394Z,102512.38
2023-05-19T00:57:00.041Z,102514.13
2023-05-19T00:57:14.620Z,102519.50
2023-05-19T00:57:28.042Z,102515.84
2023-05-19T00:57:40.950Z,102518.53
2023-05-19T00:57:54.000Z,102520.28
2023-05-19T00:58:07.399Z,102507.81
2023-05-19T00:58:20.031Z,102511.38
2023-05-19T00:58:33.764Z,102522.09
2023-05-19T00:58:47.892Z,102524.66
2023-05-19T00:59:01.157Z,102516.63
2023-05-19T00:59:13.886Z,102516.63
2023-05-19T00:59:26.645Z,102519.31
2023-05-19T00:59:39.465Z,102519.22
2023-05-19T00:59:52.015Z,102513.00
2023-05-19T01:00:05.856Z,102519.31
2023-05-19T01:00:19.777Z,102517.47
2023-05-19T01:00:32.659Z,102517.47
2023-05-19T01:00:45.948Z,102516.63
2023-05-19T01:01:03.261Z,102516.63
2023-05-19T01:01:17.373Z,102513.00
2023-05-19T01:01:30.271Z,102513.94
2023-05-19T01:01:43.228Z,102521.97
2023-05-19T01:01:57.042Z,102519.31
2023-05-19T01:02:09.640Z,102520.16
2023-05-19T01:02:22.249Z,102516.63
2023-05-19T01:02:35.331Z,102521.97
2023-05-19T01:02:48.289Z,102521.06
2023-05-19T01:03:01.130Z,102516.53
2023-05-19T01:03:15.135Z,102520.09
2023-05-19T01:03:31.044Z,102513.00
2023-05-19T01:03:45.700Z,102522.75
2023-05-19T01:03:59.185Z,102520.09
2023-05-19T01:04:16.893Z,102516.53
2023-05-19T01:04:29.820Z,102520.09
2023-05-19T01:04:44.930Z,102520.09
2023-05-19T01:04:57.474Z,102519.22
2023-05-19T01:05:10.519Z,102520.09
2023-05-19T01:05:24.453Z,102521.84
2023-05-19T01:05:41.641Z,102511.13
2023-05-19T01:05:54.250Z,102520.94
2023-05-19T01:06:07.197Z,102517.41
2023-05-19T01:06:20.895Z,102518.19
2023-05-19T01:06:34.303Z,102522.59
2023-05-19T01:06:47.360Z,102517.25
2023-05-19T01:07:01.173Z,102519.03
2023-05-19T01:07:13.810Z,102519.81
2023-05-19T01:07:27.354Z,102519.81
2023-05-19T01:07:41.529Z,102520.72
2023-05-19T01:07:56.475Z,102516.22
2023-05-19T01:08:09.269Z,102524.25
2023-05-19T01:08:22.078Z,102524.13
2023-05-19T01:08:37.668Z,102525.09
2023-05-19T01:08:51.631Z,102516.09
2023-05-19T01:09:04.577Z,102519.75
2023-05-19T01:09:18.313Z,102521.47
2023-05-19T01:09:32.261Z,102519.75
2023-05-19T01:09:44.996Z,102519.75
2023-05-19T01:09:59.127Z,102518.03
2023-05-19T01:10:11.639Z,102525.09
2023-05-19T01:10:24.214Z,102528.75
2023-05-19T01:10:36.912Z,102523.38
2023-05-19T01:10:49.465Z,102522.50
2023-05-19T01:11:02.242Z,102524.25
2023-05-19T01:11:14.800Z,102518.03
2023-05-19T01:11:27.362Z,102524.25
2023-05-19T01:11:40.895Z,102524.25
2023-05-19T01:11:53.521Z,102525.09
2023-05-19T01:12:06.977Z,102521.47
2023-05-19T01:12:19.902Z,102519.75
2023-05-19T01:12:32.472Z,102520.59
2023-05-19T01:12:45.128Z,102522.34
2023-05-19T01:12:57.762Z,102523.22
2023-05-19T01:13:11.415Z,102517.84
2023-05-19T01:13:25.175Z,102517.78
2023-05-19T01:13:39.186Z,102519.56
2023-05-19T01:13:53.801Z,102524.06
2023-05-19T01:14:06.821Z,102526.66
2023-05-19T01:14:20.692Z,102519.56
2023-05-19T01:14:33.321Z,102516.88
2023-05-19T01:14:46.890Z,102518.63
2023-05-19T01:14:59.842Z,102521.31
2023-05-19T01:15:13.861Z,102525.69
2023-05-19T01:15:27.790Z,102522.09
2023-05-19T01:15:56.556Z,102517.66
2023-05-19T01:16:15.227Z,102519.41
2023-05-19T01:16:35.253Z,102515.75
2023-05-19T01:16:55.017Z,102514.91
2023-05-19T01:17:15.207Z,102520.25
2023-05-19T01:17:34.393Z,102510.41
2023-05-19T01:17:57.091Z,102518.44
2023-05-19T01:18:14.315Z,102514.03
2023-05-19T01:18:38.787Z,102514.03
2023-05-19T01:19:01.660Z,102515.88
2023-05-19T01:19:33.050Z,102519.47
2023-05-19T01:19:56.372Z,102514.13
2023-05-19T01:20:16.848Z,102517.78
2023-05-19T01:20:38.880Z,102519.56
2023-05-19T01:20:59.301Z,102516.03
2023-05-19T01:21:54.479Z,102522.34
2023-05-19T01:22:22.749Z,102519.75
2023-05-19T01:22:57.182Z,102518.03
2023-05-19T01:23:29.355Z,102519.94
2023-05-19T01:23:51.031Z,102518.19
2023-05-19T01:24:22.945Z,102517.41
2023-05-19T01:24:58.317Z,102520.09
2023-05-19T01:25:42.511Z,102519.22
2023-05-19T01:26:16.245Z,102523.72
2023-05-19T01:26:44.508Z,102525.44
2023-05-19T01:27:18.844Z,102517.41
2023-05-19T01:27:44.417Z,102519.22
2023-05-19T01:28:32.170Z,102516.63
2023-05-19T01:29:12.266Z,102517.47
2023-05-19T01:29:41.165Z,102526.41
2023-05-19T01:30:25.402Z,102522.84
2023-05-19T01:30:40.542Z,102522.75
2023-05-19T01:30:56.090Z,102520.16
2023-05-19T01:31:11.847Z,102522.75
2023-05-19T01:31:26.787Z,102523.72
2023-05-19T01:31:42.278Z,102519.22
2023-05-19T01:31:58.286Z,102526.41
2023-05-19T01:32:13.381Z,102520.09
2023-05-19T01:32:26.871Z,102518.38
2023-05-19T01:32:42.436Z,102524.59
2023-05-19T01:32:59.436Z,102520.09
2023-05-19T01:33:14.634Z,102526.41
2023-05-19T01:33:30.020Z,102522.75
2023-05-19T01:33:45.568Z,102520.94
2023-05-19T01:33:59.598Z,102516.53
2023-05-19T01:34:13.316Z,102519.22
2023-05-19T01:34:27.483Z,102520.09
2023-05-19T01:34:44.122Z,102522.75
2023-05-19T01:34:58.239Z,102524.50
2023-05-19T01:35:15.610Z,102517.31
2023-05-19T01:35:30.305Z,102521.84
2023-05-19T01:35:44.331Z,102521.84
2023-05-19T01:35:59.223Z,102521.72
2023-05-19T01:36:13.554Z,102527.97
2023-05-19T01:36:26.742Z,102523.53
2023-05-19T01:36:44.824Z,102527.97
2023-05-19T01:37:01.821Z,102519.03
2023-05-19T01:37:16.377Z,102516.34
2023-05-19T01:37:29.752Z,102522.59
2023-05-19T01:37:43.123Z,102523.47
2023-05-19T01:37:58.572Z,102520.78
2023-05-19T01:38:13.247Z,102518.09
2023-05-19T01:38:28.385Z,102514.56
2023-05-19T01:38:42.638Z,102520.78
2023-05-19T01:38:59.457Z,102523.47
2023-05-19T01:39:13.840Z,102519.03
2023-05-19T01:39:26.549Z,102520.88
2023-05-19T01:39:40.679Z,102515.50
2023-05-19T01:39:55.667Z,102518.19
2023-05-19T01:40:09.944Z,102519.94
2023-05-19T01:40:23.843Z,102520.88
2023-05-19T01:40:39.340Z,102516.47
2023-05-19T01:40:53.106Z,102517.31
2023-05-19T01:41:07.663Z,102517.31
2023-05-19T01:41:22.044Z,102515.59
2023-05-19T01:41:35.031Z,102520.94
2023-05-19T01:41:48.524Z,102520.09
2023-05-19T01:42:02.430Z,102519.22
2023-05-19T01:42:17.388Z,102510.34
2023-05-19T01:42:37.224Z,102512.13
2023-05-19T01:42:52.508Z,102520.28
2023-05-19T01:43:06.432Z,102521.97
2023-05-19T01:43:21.583Z,102521.97
2023-05-19T01:43:35.964Z,102516.72
2023-05-19T01:43:49.624Z,102523.88
2023-05-19T01:44:02.510Z,102516.81
2023-05-19T01:44:16.254Z,102515.84
2023-05-19T01:44:29.373Z,102522.16
2023-05-19T01:44:42.401Z,102526.56
2023-05-19T01:44:56.407Z,102518.63
2023-05-19T01:45:10.639Z,102523.09
2023-05-19T01:45:25.251Z,102520.44
2023-05-19T01:45:39.594Z,102524.84
2023-05-19T01:45:53.398Z,102525.78
2023-05-19T01:46:09.164Z,102518.53
2023-05-19T01:46:23.083Z,102520.34
2023-05-19T01:46:36.297Z,102518.53
2023-05-19T01:46:49.801Z,102518.53
2023-05-19T01:47:04.069Z,102523.88
2023-05-19T01:47:16.861Z,102519.50
2023-05-19T01:47:29.845Z,102520.34
2023-05-19T01:47:45.039Z,102518.53
2023-05-19T01:48:00.489Z,102521.31
2023-05-19T01:48:13.904Z,102516.81
2023-05-19T01:48:28.114Z,102521.31
2023-05-19T01:48:41.587Z,102522.16
2023-05-19T01:48:55.056Z,102518.53
2023-05-19T01:49:08.072Z,102519.50
2023-05-19T01:49:20.739Z,102514.13
2023-05-19T01:49:33.279Z,102515.84
2023-05-19T01:49:45.851Z,102515.84
2023-05-19T01:49:58.460Z,102518.53
2023-05-19T01:50:11.504Z,102513.16
2023-05-19T01:50:25.253Z,102512.22
2023-05-19T01:50:38.296Z,102514.06
2023-05-19T01:50:51.263Z,102516.63
2023-05-19T01:51:04.159Z,102518.38
2023-05-19T01:51:17.094Z,102516.63
2023-05-19T01:51:29.632Z,102511.25
2023-05-19T01:51:42.233Z,102521.06
2023-05-19T01:51:54.950Z,102521.06
2023-05-19T01:52:08.518Z,102513.88
2023-05-19T01:52:21.084Z,102515.59
2023-05-19T01:52:33.833Z,102518.38
2023-05-19T01:52:46.651Z,102515.69
2023-05-19T01:52:59.427Z,102513.94
2023-05-19T01:53:12.229Z,102518.38
2023-05-19T01:53:24.936Z,102515.69
2023-05-19T01:53:37.543Z,102517.47
2023-05-19T01:53:50.318Z,102514.81
2023-05-19T01:54:03.869Z,102519.31
2023-05-19T01:54:16.434Z,102511.25
2023-05-19T01:54:29.107Z,102514.91
2023-05-19T01:54:41.627Z,102516.63
2023-05-19T01:54:54.201Z,102521.97
2023-05-19T01:55:08.472Z,102520.28
2023-05-19T01:55:23.326Z,102521.13
2023-05-19T01:55:43.281Z,102518.53
2023-05-19T01:55:57.162Z,102518.53
2023-05-19T01:56:09.741Z,102514.97
2023-05-19T01:56:34.071Z,102513.28
2023-05-19T01:56:52.801Z,102517.75
2023-05-19T01:57:15.054Z,102519.56
2023-05-19T01:57:35.143Z,102516.88
2023-05-19T01:57:56.484Z,102513.34
2023-05-19T01:58:15.956Z,102521.38
2023-05-19T01:58:37.909Z,102524.06
2023-05-19T01:58:56.042Z,102513.34
2023-05-19T01:59:33.576Z,102524.06
2023-05-19T01:59:58.235Z,102521.38
2023-05-19T02:00:16.857Z,102516.88
2023-05-19T02:00:45.515Z,102518.72
2023-05-19T02:01:03.507Z,102518.72
2023-05-19T02:01:26.557Z,102516.03
2023-05-19T02:01:51.704Z,102524.06
2023-05-19T02:02:15.094Z,102517.84
2023-05-19T02:02:39.296Z,102514.28
2023-05-19T02:03:01.257Z,102515.25
2023-05-19T02:03:26.310Z,102512.56
2023-05-19T02:04:02.277Z,102520.69
2023-05-19T02:04:25.022Z,102512.66
2023-05-19T02:04:46.395Z,102516.19
2023-05-19T02:05:07.948Z,102516.19
2023-05-19T02:05:29.521Z,102517.16
2023-05-19T02:05:52.766Z,102516.19
2023-05-19T02:06:18.556Z,102512.66
2023-05-19T02:06:41.637Z,102514.47
2023-05-19T02:07:01.693Z,102516.28
2023-05-19T02:07:21.164Z,102515.44
2023-05-19T02:07:42.521Z,102515.44
2023-05-19T02:08:01.743Z,102516.38
2023-05-19T02:08:21.565Z,102515.44
2023-05-19T02:08:42.866Z,102518.19
2023-05-19T02:09:01.222Z,102511.97
2023-05-19T02:09:18.715Z,102511.97
2023-05-19T02:09:39.802Z,102509.38
2023-05-19T02:09:59.275Z,102515.59
2023-05-19T02:10:19.367Z,102513.88
2023-05-19T02:10:37.032Z,102512.13
2023-05-19T02:10:55.278Z,102520.16
2023-05-19T02:11:14.590Z,102515.78
2023-05-19T02:11:36.419Z,102514.03
2023-05-19T02:11:55.951Z,102514.03
2023-05-19T02:12:17.273Z,102512.31
2023-05-19T02:12:34.474Z,102515.00
2023-05-19T02:12:51.699Z,102511.44
2023-05-19T02:13:07.003Z,102516.88
2023-05-19T02:13:24.617Z,102510.66
2023-05-19T02:13:41.008Z,102514.22
2023-05-19T02:13:57.062Z,102513.34
2023-05-19T02:14:16.091Z,102514.22
2023-05-19T02:14:33.168Z,102513.44
2023-05-19T02:14:50.909Z,102509.88
2023-05-19T02:15:11.336Z,102517.03
2023-05-19T02:15:30.197Z,102514.47
2023-05-19T02:15:47.217Z,102512.72
2023-05-19T02:16:07.326Z,102518.94
2023-05-19T02:16:26.339Z,102518.94
2023-05-19T02:16:40.147Z,102512.72
2023-05-19T02:16:53.080Z,102515.41
2023-05-19T02:17:06.115Z,102513.69
2023-05-19T02:17:20.557Z,102514.53
2023-05-19T02:17:36.450Z,102523.44
2023-05-19T02:17:54.395Z,102517.16
2023-05-19T02:18:11.556Z,102520.69
2023-05-19T02:18:25.164Z,102518.84
2023-05-19T02:18:37.735Z,102517.16
2023-05-19T02:18:53.931Z,102519.72
2023-05-19T02:19:06.622Z,102516.25
2023-05-19T02:19:24.522Z,102508.22
2023-05-19T02:19:39.341Z,102521.63
2023-05-19T02:19:52.165Z,102522.50
2023-05-19T02:20:06.900Z,102519.91
2023-05-19T02:20:20.156Z,102518.19
2023-05-19T02:20:33.041Z,102518.19
2023-05-19T02:20:45.980Z,102521.72
2023-05-19T02:20:58.560Z,102520.94
2023-05-19T02:21:13.369Z,102518.25
2023-05-19T02:21:26.019Z,102514.72
2023-05-19T02:21:38.576Z,102522.84
2023-05-19T02:21:52.245Z,102518.34
2023-05-19T02:22:05.264Z,102521.97
2023-05-19T02:22:17.916Z,102515.72
2023-05-19T02:22:30.877Z,102521.09
2023-05-19T02:22:43.485Z,102520.22
2023-05-19T02:22:56.404Z,102512.28
2023-05-19T02:23:10.069Z,102516.78
2023-05-19T02:23:22.884Z,102518.59
2023-05-19T02:23:35.584Z,102525.75
2023-05-19T02:23:48.799Z,102516.94
2023-05-19T02:24:01.382Z,102522.31
2023-05-19T02:24:13.875Z,102518.78
2023-05-19T02:24:26.548Z,102525.06
2023-05-19T02:24:39.534Z,102518.84
2023-05-19T02:24:53.079Z,102522.44
2023-05-19T02:25:06.942Z,102518.06
2023-05-19T02:25:19.537Z,102520.75
2023-05-19T02:25:32.172Z,102524.34
2023-05-19T02:25:44.811Z,102525.25
2023-05-19T02:25:57.640Z,102519.97
2023-05-19T02:26:10.335Z,102523.59
2023-05-19T02:26:22.956Z,102528.94
2023-05-19T02:26:36.493Z,102526.28
2023-05-19T02:26:49.350Z,102516.50
2023-05-19T02:27:02.680Z,102531.63
2023-05-19T02:27:15.547Z,102526.41
2023-05-19T02:27:28.110Z,102526.34
2023-05-19T02:27:41.737Z,102522.81
2023-05-19T02:27:56.134Z,102523.66
2023-05-19T02:28:08.719Z,102524.59
2023-05-19T02:28:21.443Z,102524.53
2023-05-19T02:28:34.040Z,102529.03
2023-05-19T02:28:46.832Z,102522.81
2023-05-19T02:28:59.336Z,102524.53
2023-05-19T02:29:12.182Z,102524.53
2023-05-19T02:29:25.877Z,102528.06
2023-05-19T02:29:38.407Z,102527.22
2023-05-19T02:29:50.970Z,102523.66
2023-05-19T02:30:03.708Z,102527.22
2023-05-19T02:30:16.470Z,102524.53
2023-05-19T02:30:29.012Z,102522.72
2023-05-19T02:30:41.905Z,102525.38
2023-05-19T02:30:55.841Z,102527.13
2023-05-19T02:31:10.173Z,102525.31
2023-05-19T02:31:22.755Z,102523.50
2023-05-19T02:31:35.517Z,102520.75
2023-05-19T02:31:48.543Z,102522.63
2023-05-19T02:32:01.891Z,102519.00
2023-05-19T02:32:15.161Z,102529.72
2023-05-19T02:32:27.829Z,102522.63
2023-05-19T02:32:40.518Z,102522.63
2023-05-19T02:32:54.320Z,102522.63
2023-05-19T02:33:08.031Z,102523.50
2023-05-19T02:33:20.680Z,102529.81
2023-05-19T02:33:33.222Z,102523.59
2023-05-19T02:33:45.789Z,102524.53
2023-05-19T02:33:58.354Z,102528.94
2023-05-19T02:34:10.974Z,102524.53
2023-05-19T02:34:23.583Z,102519.16
2023-05-19T02:34:36.700Z,102519.16
2023-05-19T02:34:49.241Z,102519.16
2023-05-19T02:35:02.776Z,102524.53
2023-05-19T02:35:15.670Z,102517.47
2023-05-19T02:35:28.565Z,102519.16
2023-05-19T02:35:41.092Z,102522.81
2023-05-19T02:35:53.692Z,102517.47
2023-05-19T02:36:07.010Z,102517.47
2023-05-19T02:36:20.566Z,102528.16
2023-05-19T02:36:34.954Z,102517.47
2023-05-19T02:36:49.810Z,102521.94
2023-05-19T02:37:02.418Z,102518.38
2023-05-19T02:37:15.654Z,102521.06
2023-05-19T02:37:28.668Z,102527.28
2023-05-19T02:37:42.271Z,102515.72
2023-05-19T02:37:54.921Z,102516.69
2023-05-19T02:38:07.543Z,102518.38
2023-05-19T02:38:21.385Z,102514.00
2023-05-19T02:38:33.938Z,102521.06
2023-05-19T02:38:46.540Z,102521.06
2023-05-19T02:39:01.752Z,102514.00
2023-05-19T02:39:14.321Z,102513.09
2023-05-19T02:39:26.970Z,102512.25
2023-05-19T02:39:39.518Z,102516.75
2023-05-19T02:39:52.015Z,102520.28
2023-05-19T02:40:05.769Z,102515.88
2023-05-19T02:40:18.623Z,102524.00
2023-05-19T02:40:31.403Z,102518.63
2023-05-19T02:40:45.465Z,102515.09
2023-05-19T02:40:58.611Z,102516.94
2023-05-19T02:41:11.151Z,102513.34
2023-05-19T02:41:23.684Z,102508.97
2023-05-19T02:41:36.222Z,102517.94
2023-05-19T02:41:48.999Z,102517.06
2023-05-19T02:42:01.648Z,102510.88
2023-05-19T02:42:17.673Z,102516.22
2023-05-19T02:42:31.408Z,102517.06
2023-05-19T02:42:43.917Z,102515.25
2023-05-19T02:42:56.424Z,102510.88
2023-05-19T02:43:08.953Z,102516.22
2023-05-19T02:43:21.489Z,102517.06
2023-05-19T02:43:34.562Z,102515.34
2023-05-19T02:43:47.100Z,102516.22
2023-05-19T02:44:00.058Z,102508.25
2023-05-19T02:44:13.600Z,102509.13
2023-05-19T02:44:26.207Z,102515.34
2023-05-19T02:44:38.740Z,102512.69
2023-05-19T02:44:51.580Z,102509.13
2023-05-19T02:45:04.898Z,102508.19
2023-05-19T02:45:17.680Z,102511.78
2023-05-19T02:45:30.253Z,102508.25
2023-05-19T02:45:43.033Z,102509.03
2023-05-19T02:45:57.935Z,102510.00
2023-05-19T02:46:10.555Z,102513.53
2023-05-19T02:46:23.126Z,102517.06
2023-05-19T02:46:35.754Z,102510.88
2023-05-19T02:46:48.413Z,102505.50
2023-05-19T02:47:01.055Z,102508.09
2023-05-19T02:47:13.780Z,102517.06
2023-05-19T02:47:27.324Z,102508.09
2023-05-19T02:47:41.468Z,102509.91
2023-05-19T02:47:54.070Z,102506.28
2023-05-19T02:48:06.706Z,102512.56
2023-05-19T02:48:19.285Z,102515.25
2023-05-19T02:48:31.837Z,102509.81
2023-05-19T02:48:44.388Z,102507.22
2023-05-19T02:48:56.911Z,102508.97
2023-05-19T02:49:11.248Z,102512.56
2023-05-19T02:49:23.906Z,102509.91
2023-05-19T02:49:36.705Z,102505.50